PWSweather.com
Personal Weather Stations
Station Observations
MAHIABEACH
Mahia Beach, Mahia Peninsula Hawkes Bay -NZ 4108

Mahia BeachMahia Peninsula Hawkes Bay -NZ 4108

Lat: -39.08872, Lon: 177.878209

Elevation: 72

Station Type: WS2083

http://wairoa.net/mahia/index.htm

Latest ConditionsUpdated 9:00:05 AM GMT+12:12 Wednesday, Aug 24, 2016
Currently Today's Max Today's Min Today's Average
Temperature 51.1°F10.6°C 51.8°F11.0°C 46.2°F7.9°C 48.6°F9.2°C
Dew Point 45.5°F7.5°C 45.5°F7.5°C 42.0°F5.6°C 43.7°F6.5°C
Winds 4.3 mph SE6.9 kmh SE 6.3 mph SE10.1 kmh SE - 2.5 mph 4.0 kmh
Wind Gusts 9.2 mph14.8 kmh 13.6 mph21.9 kmh - -
Humidity 81% 86% 79% 83%
Pressure 30.10 in1019.3 mb 30.10 in1019.3 mb 30.05 in1017.6 mb -
Hour Temp Dew Point Humidity Winds Wind Gusts Pressure Precip Precip Rate Daily Precip Total
09:00 AM 51.1°F10.6°C 45.5°F7.5°C 81% 4.3 mph SE6.9 kmh SE 9.2 mph14.8 kmh 30.10 in1019.3 mb 0.00 in0.0 mm 0.00 in0.0 mm 0.00 in0.0 mm
08:45 AM 51.4°F10.8°C 45.5°F7.5°C 80% 1.9 mph ENE3.1 kmh ENE 4.5 mph7.2 kmh 30.10 in1019.3 mb 0.00 in0.0 mm 0.00 in0.0 mm 0.00 in0.0 mm
08:30 AM 51.8°F11.0°C 45.5°F7.5°C 79% 2.3 mph S3.7 kmh S 6.9 mph11.1 kmh 30.10 in1019.3 mb 0.00 in0.0 mm 0.00 in0.0 mm 0.00 in0.0 mm
08:15 AM 51.1°F10.6°C 45.1°F7.3°C 80% 5.1 mph SSE8.2 kmh SSE 12.1 mph19.5 kmh 30.10 in1019.3 mb 0.00 in0.0 mm 0.00 in0.0 mm 0.00 in0.0 mm
08:00 AM 50.9°F10.5°C 45.0°F7.2°C 80% 4.4 mph ESE7.1 kmh ESE 9.2 mph14.8 kmh 30.10 in1019.3 mb 0.00 in0.0 mm 0.00 in0.0 mm 0.00 in0.0 mm
07:45 AM 51.1°F10.6°C 45.1°F7.3°C 80% 3.2 mph SE5.1 kmh SE 9.2 mph14.8 kmh 30.09 in1019.0 mb 0.00 in0.0 mm 0.00 in0.0 mm 0.00 in0.0 mm
07:30 AM 51.1°F10.6°C 45.1°F7.3°C 80% 4.7 mph SE7.6 kmh SE 10.7 mph17.2 kmh 30.08 in1018.6 mb 0.00 in0.0 mm 0.00 in0.0 mm 0.00 in0.0 mm
07:15 AM 50.2°F10.1°C 43.9°F6.6°C 79% 6.1 mph S9.8 kmh S 11.4 mph18.3 kmh 30.07 in1018.3 mb 0.00 in0.0 mm 0.00 in0.0 mm 0.00 in0.0 mm
07:00 AM 50.2°F10.1°C 43.9°F6.6°C 79% 5.1 mph SSE8.2 kmh SSE 13.6 mph21.9 kmh 30.06 in1017.9 mb 0.00 in0.0 mm 0.00 in0.0 mm 0.00 in0.0 mm
06:45 AM 49.6°F9.8°C 44.1°F6.7°C 81% 5.3 mph ESE8.5 kmh ESE 9.8 mph15.8 kmh 30.07 in1018.3 mb 0.00 in0.0 mm 0.00 in0.0 mm 0.00 in0.0 mm
06:30 AM 49.6°F9.8°C 44.1°F6.7°C 81% 6.3 mph SE10.1 kmh SE 11.4 mph18.3 kmh 30.07 in1018.3 mb 0.00 in0.0 mm 0.00 in0.0 mm 0.00 in0.0 mm
06:15 AM 49.6°F9.8°C 44.1°F6.7°C 81% 4.2 mph ESE6.8 kmh ESE 7.6 mph12.2 kmh 30.07 in1018.3 mb 0.00 in0.0 mm 0.00 in0.0 mm 0.00 in0.0 mm
06:00 AM 49.6°F9.8°C 44.1°F6.7°C 81% 6.2 mph SE10.0 kmh SE 9.8 mph15.8 kmh 30.07 in1018.3 mb 0.00 in0.0 mm 0.00 in0.0 mm 0.00 in0.0 mm
05:45 AM 49.8°F9.9°C 44.2°F6.8°C 81% 5.0 mph E8.0 kmh E 8.3 mph13.4 kmh 30.07 in1018.3 mb 0.00 in0.0 mm 0.00 in0.0 mm 0.00 in0.0 mm
05:30 AM 49.6°F9.8°C 44.1°F6.7°C 81% 4.6 mph E7.4 kmh E 7.6 mph12.2 kmh 30.08 in1018.6 mb 0.00 in0.0 mm 0.00 in0.0 mm 0.00 in0.0 mm
05:15 AM 49.5°F9.7°C 44.2°F6.8°C 82% 3.5 mph E5.6 kmh E 6.9 mph11.1 kmh 30.07 in1018.3 mb 0.00 in0.0 mm 0.00 in0.0 mm 0.00 in0.0 mm
05:00 AM 49.1°F9.5°C 44.5°F6.9°C 84% 4.7 mph SE7.6 kmh SE 8.3 mph13.4 kmh 30.07 in1018.3 mb 0.00 in0.0 mm 0.00 in0.0 mm 0.00 in0.0 mm
04:45 AM 48.7°F9.3°C 44.1°F6.7°C 84% 3.3 mph ENE5.3 kmh ENE 6.9 mph11.1 kmh 30.06 in1017.9 mb 0.00 in0.0 mm 0.00 in0.0 mm 0.00 in0.0 mm
04:30 AM 48.0°F8.9°C 43.7°F6.5°C 85% 1.6 mph E2.6 kmh E 3.8 mph6.1 kmh 30.06 in1017.9 mb 0.00 in0.0 mm 0.00 in0.0 mm 0.00 in0.0 mm
04:15 AM 48.0°F8.9°C 44.0°F6.7°C 86% 1.6 mph ENE2.6 kmh ENE 3.1 mph5.0 kmh 30.06 in1017.9 mb 0.00 in0.0 mm 0.00 in0.0 mm 0.00 in0.0 mm
04:00 AM 47.8°F8.8°C 43.9°F6.6°C 86% 1.2 mph E1.9 kmh E 3.1 mph5.0 kmh 30.05 in1017.6 mb 0.00 in0.0 mm 0.00 in0.0 mm 0.00 in0.0 mm
03:45 AM 47.5°F8.6°C 43.5°F6.4°C 86% 1.1 mph NE1.8 kmh NE 3.1 mph5.0 kmh 30.06 in1017.9 mb 0.00 in0.0 mm 0.00 in0.0 mm 0.00 in0.0 mm
03:30 AM 47.1°F8.4°C 43.2°F6.2°C 86% 2.2 mph NE3.5 kmh NE 3.1 mph5.0 kmh 30.05 in1017.6 mb 0.00 in0.0 mm 0.00 in0.0 mm 0.00 in0.0 mm
03:15 AM 46.4°F8.0°C 42.1°F5.6°C 85% Calm Calm 1.6 mph2.6 kmh 30.06 in1017.9 mb 0.00 in0.0 mm 0.00 in0.0 mm 0.00 in0.0 mm
03:00 AM 46.4°F8.0°C 42.1°F5.6°C 85% Calm Calm 1.6 mph2.6 kmh 30.05 in1017.6 mb 0.00 in0.0 mm 0.00 in0.0 mm 0.00 in0.0 mm
02:45 AM 46.4°F8.0°C 42.1°F5.6°C 85% 0.6 mph E1.0 kmh E 2.2 mph3.5 kmh 30.06 in1017.9 mb 0.00 in0.0 mm 0.00 in0.0 mm 0.00 in0.0 mm
02:30 AM 46.9°F8.3°C 42.7°F5.9°C 85% Calm Calm 1.6 mph2.6 kmh 30.06 in1017.9 mb 0.00 in0.0 mm 0.00 in0.0 mm 0.00 in0.0 mm
02:15 AM 47.5°F8.6°C 43.5°F6.4°C 86% 0.5 mph SW0.8 kmh SW 1.6 mph2.6 kmh 30.07 in1018.3 mb 0.00 in0.0 mm 0.00 in0.0 mm 0.00 in0.0 mm
02:00 AM 47.7°F8.7°C 43.7°F6.5°C 86% 1.7 mph N2.7 kmh N 5.4 mph8.7 kmh 30.07 in1018.3 mb 0.00 in0.0 mm 0.00 in0.0 mm 0.00 in0.0 mm
01:45 AM 46.9°F8.3°C 42.7°F5.9°C 85% 0.6 mph NNW1.0 kmh NNW 2.2 mph3.5 kmh 30.06 in1017.9 mb 0.00 in0.0 mm 0.00 in0.0 mm 0.00 in0.0 mm
01:30 AM 46.8°F8.2°C 42.8°F6.0°C 86% 0.7 mph N1.1 kmh N 2.2 mph3.5 kmh 30.07 in1018.3 mb 0.00 in0.0 mm 0.00 in0.0 mm 0.00 in0.0 mm
01:15 AM 46.8°F8.2°C 42.8°F6.0°C 86% 0.7 mph N1.1 kmh N 2.2 mph3.5 kmh 30.07 in1018.3 mb 0.00 in0.0 mm 0.00 in0.0 mm 0.00 in0.0 mm
01:00 AM 46.4°F8.0°C 42.1°F5.6°C 85% Calm Calm 1.6 mph2.6 kmh 30.07 in1018.3 mb 0.00 in0.0 mm 0.00 in0.0 mm 0.00 in0.0 mm
12:45 AM 46.4°F8.0°C 42.1°F5.6°C 85% Calm Calm 1.6 mph2.6 kmh 30.06 in1017.9 mb 0.00 in0.0 mm 0.00 in0.0 mm 0.00 in0.0 mm
12:30 AM 46.4°F8.0°C 42.1°F5.6°C 85% 0.1 mph SW0.2 kmh SW 1.6 mph2.6 kmh 30.06 in1017.9 mb 0.00 in0.0 mm 0.00 in0.0 mm 0.00 in0.0 mm
12:15 AM 47.8°F8.8°C 43.9°F6.6°C 86% 0.7 mph SW1.1 kmh SW 1.6 mph2.6 kmh 30.06 in1017.9 mb 0.00 in0.0 mm 0.00 in0.0 mm 0.00 in0.0 mm
12:00 AM 46.2°F7.9°C 42.0°F5.6°C 85% Calm Calm 0.7 mph1.1 kmh 30.06 in1017.9 mb 0.00 in0.0 mm 0.00 in0.0 mm 0.00 in0.0 mm